Time;durP1;ratioP1;P1;durP2;ratioP2;P2;SDS_P1;SDS_P2;PMS_P1;PMS_P2;Temp;Humidity;BMP_temperature;BMP_pressure;BME280_temperature;BME280_humidity;BME280_pressure;Samples;Min_cycle;Max_cycle;Signal;HPM_P1;HPM_P2
2023/06/29 00:01:27;;;;;;;;;;;18.30;99.90;;;;;;5074340;28;20005;-68
2023/06/29 00:03:54;;;;;;;;;;;18.20;99.90;;;;;;5074448;28;20434;-68
2023/06/29 00:06:23;;;;;;;;;;;18.20;99.90;;;;;;5074625;28;20001;-69
2023/06/29 00:08:50;;;;;;;;;;;18.10;99.90;;;;;;5074145;28;20001;-68
2023/06/29 00:11:18;;;;;;;;;;;18.00;99.90;;;;;;5077838;28;20045;-68
2023/06/29 00:13:44;;;;;;;;;;;17.90;99.90;;;;;;5078419;28;20001;-68
2023/06/29 00:16:11;;;;;;;;;;;17.80;99.90;;;;;;5077692;28;20016;-67
2023/06/29 00:18:38;;;;;;;;;;;17.80;99.90;;;;;;5077951;28;20052;-68
2023/06/29 00:21:06;;;;;;;;;;;17.70;99.90;;;;;;5077998;28;20001;-69
2023/06/29 00:23:34;;;;;;;;;;;17.70;99.90;;;;;;5077541;28;20001;-68
2023/06/29 00:26:01;;;;;;;;;;;17.60;99.90;;;;;;5077555;28;20059;-68
2023/06/29 00:28:29;;;;;;;;;;;17.60;99.90;;;;;;5077374;28;20005;-68
2023/06/29 00:30:55;;;;;;;;;;;17.50;99.90;;;;;;5077546;28;20301;-68
2023/06/29 00:33:22;;;;;;;;;;;17.50;99.90;;;;;;5077535;28;20299;-68
2023/06/29 00:35:49;;;;;;;;;;;17.50;99.90;;;;;;5077667;28;20124;-68
2023/06/29 00:38:15;;;;;;;;;;;17.40;99.90;;;;;;5077075;28;20110;-68
2023/06/29 00:40:42;;;;;;;;;;;17.40;99.90;;;;;;5076947;28;20008;-68
2023/06/29 00:43:09;;;;;;;;;;;17.40;99.90;;;;;;5077380;28;20001;-68
2023/06/29 00:45:37;;;;;;;;;;;17.40;99.90;;;;;;5077306;28;20079;-68
2023/06/29 00:48:04;;;;;;;;;;;17.40;99.90;;;;;;5077268;28;20001;-68
2023/06/29 00:50:30;;;;;;;;;;;17.30;99.90;;;;;;5077274;28;20083;-68
2023/06/29 00:52:57;;;;;;;;;;;17.30;99.90;;;;;;5077427;28;20092;-68
2023/06/29 00:55:24;;;;;;;;;;;17.30;99.90;;;;;;5077367;28;20017;-68
2023/06/29 00:57:50;;;;;;;;;;;17.20;99.90;;;;;;5077046;28;20017;-68
2023/06/29 01:00:18;;;;;;;;;;;17.30;99.90;;;;;;5077345;28;20165;-68
2023/06/29 01:02:46;;;;;;;;;;;17.20;99.90;;;;;;5077189;28;20001;-68
2023/06/29 01:05:14;;;;;;;;;;;17.20;99.90;;;;;;5077498;28;20013;-68
2023/06/29 01:07:42;;;;;;;;;;;17.30;99.90;;;;;;5077114;28;20009;-68
2023/06/29 01:10:10;;;;;;;;;;;17.20;99.90;;;;;;5077014;28;20437;-68
2023/06/29 01:12:37;;;;;;;;;;;17.20;99.90;;;;;;5076465;28;20394;-68
2023/06/29 01:15:05;;;;;;;;;;;17.20;99.90;;;;;;5076420;28;20442;-68
2023/06/29 01:17:32;;;;;;;;;;;17.20;99.90;;;;;;5076860;28;20027;-68
2023/06/29 01:20:01;;;;;;;;;;;17.20;99.90;;;;;;5076151;28;20497;-68
2023/06/29 01:22:29;;;;;;;;;;;17.20;99.90;;;;;;5076723;28;20318;-68
2023/06/29 01:24:57;;;;;;;;;;;17.10;99.90;;;;;;5076462;28;20001;-68
2023/06/29 01:27:24;;;;;;;;;;;17.20;99.90;;;;;;5076241;28;20031;-68
2023/06/29 01:29:55;;;;;;;;;;;17.10;99.90;;;;;;5076625;28;20298;-68
2023/06/29 01:32:21;;;;;;;;;;;17.10;99.90;;;;;;5076693;28;20009;-68
2023/06/29 01:34:51;;;;;;;;;;;17.00;99.90;;;;;;5076305;28;20021;-68
2023/06/29 01:37:20;;;;;;;;;;;17.00;99.90;;;;;;5075957;28;20025;-68
2023/06/29 01:39:50;;;;;;;;;;;17.00;99.90;;;;;;5076221;28;20435;-68
2023/06/29 01:42:20;;;;;;;;;;;17.00;99.90;;;;;;5076186;28;20001;-68
2023/06/29 01:44:47;;;;;;;;;;;17.00;99.90;;;;;;5076149;28;20001;-68
2023/06/29 01:47:15;;;;;;;;;;;17.00;99.90;;;;;;5076119;28;20005;-68
2023/06/29 01:49:42;;;;;;;;;;;16.90;99.90;;;;;;5075778;28;20001;-68
2023/06/29 01:52:09;;;;;;;;;;;16.90;99.90;;;;;;5076070;28;19997;-68
2023/06/29 01:54:36;;;;;;;;;;;16.90;99.90;;;;;;5075838;28;20430;-68
2023/06/29 01:57:05;;;;;;;;;;;16.90;99.90;;;;;;5075804;28;20001;-68
2023/06/29 01:59:33;;;;;;;;;;;16.90;99.90;;;;;;5075907;28;19997;-68
2023/06/29 02:02:00;;;;;;;;;;;16.90;99.90;;;;;;5075861;28;20329;-68
2023/06/29 02:04:26;;;;;;;;;;;16.80;99.90;;;;;;5075862;28;20009;-68
2023/06/29 02:06:53;;;;;;;;;;;16.80;99.90;;;;;;5075807;28;20001;-68
2023/06/29 02:09:19;;;;;;;;;;;16.80;99.90;;;;;;5075673;28;20001;-68
2023/06/29 02:11:46;;;;;;;;;;;16.80;99.90;;;;;;5075384;28;20001;-69
2023/06/29 02:14:16;;;;;;;;;;;16.80;99.90;;;;;;5075491;28;20007;-67
2023/06/29 02:16:45;;;;;;;;;;;16.80;99.90;;;;;;5075490;28;20033;-67
2023/06/29 02:19:11;;;;;;;;;;;16.80;99.90;;;;;;5075490;28;20062;-67
2023/06/29 02:21:38;;;;;;;;;;;16.80;99.90;;;;;;5075193;28;20412;-67
2023/06/29 02:24:05;;;;;;;;;;;16.80;99.90;;;;;;5075167;28;20004;-67
2023/06/29 02:26:31;;;;;;;;;;;16.90;99.90;;;;;;5075432;28;20001;-67
2023/06/29 02:28:58;;;;;;;;;;;16.90;99.90;;;;;;5075270;28;20392;-67
2023/06/29 02:31:25;;;;;;;;;;;16.80;99.90;;;;;;5074667;28;20001;-68
2023/06/29 02:33:53;;;;;;;;;;;16.80;99.90;;;;;;5075016;28;20096;-68
2023/06/29 02:36:22;;;;;;;;;;;16.90;99.90;;;;;;5074688;28;20013;-68
2023/06/29 02:38:49;;;;;;;;;;;17.00;99.90;;;;;;5075381;28;19997;-68
2023/06/29 02:41:16;;;;;;;;;;;16.90;99.90;;;;;;5074862;28;20011;-68
2023/06/29 02:43:42;;;;;;;;;;;16.80;99.90;;;;;;5074926;28;20048;-68
2023/06/29 02:46:09;;;;;;;;;;;16.70;99.90;;;;;;5075111;28;20008;-68
2023/06/29 02:48:36;;;;;;;;;;;16.80;99.90;;;;;;5075148;28;19998;-68
2023/06/29 02:51:07;;;;;;;;;;;16.70;99.90;;;;;;5075151;28;20400;-68
2023/06/29 02:53:34;;;;;;;;;;;16.70;99.90;;;;;;5074790;28;20011;-68
2023/06/29 02:56:00;;;;;;;;;;;16.80;99.90;;;;;;5074999;28;20028;-68
2023/06/29 02:58:27;;;;;;;;;;;16.80;99.90;;;;;;5075082;28;20001;-68
2023/06/29 03:00:54;;;;;;;;;;;16.80;99.90;;;;;;5075007;28;20011;-68
2023/06/29 03:03:20;;;;;;;;;;;16.90;99.90;;;;;;5075139;28;20001;-68
2023/06/29 03:05:47;;;;;;;;;;;16.90;99.90;;;;;;5075046;28;20095;-68
2023/06/29 03:08:15;;;;;;;;;;;16.90;99.90;;;;;;5074940;28;20015;-68
2023/06/29 03:10:42;;;;;;;;;;;16.90;99.90;;;;;;5074848;28;20001;-68
2023/06/29 03:13:08;;;;;;;;;;;17.00;99.90;;;;;;5074621;28;20012;-68
2023/06/29 03:15:35;;;;;;;;;;;17.00;99.90;;;;;;5074959;28;20013;-68
2023/06/29 03:18:02;;;;;;;;;;;16.90;99.90;;;;;;5074610;28;20402;-68
2023/06/29 03:20:28;;;;;;;;;;;16.80;99.90;;;;;;5074879;28;20426;-68
2023/06/29 03:22:55;;;;;;;;;;;16.80;99.90;;;;;;5074837;28;20075;-68
2023/06/29 03:25:23;;;;;;;;;;;16.70;99.90;;;;;;5074502;28;20456;-68
2023/06/29 03:27:49;;;;;;;;;;;16.70;99.90;;;;;;5074835;28;20076;-67
2023/06/29 03:30:19;;;;;;;;;;;16.70;99.90;;;;;;5074786;28;20092;-66
2023/06/29 03:32:45;;;;;;;;;;;16.80;99.90;;;;;;5074908;28;20290;-67
2023/06/29 03:35:12;;;;;;;;;;;16.90;99.90;;;;;;5074453;28;20020;-67
2023/06/29 03:37:39;;;;;;;;;;;16.90;99.90;;;;;;5074335;28;20472;-67
2023/06/29 03:40:06;;;;;;;;;;;17.00;99.90;;;;;;5074478;28;20016;-67
2023/06/29 03:42:34;;;;;;;;;;;17.00;99.90;;;;;;5074674;28;20110;-67
2023/06/29 03:45:01;;;;;;;;;;;17.00;99.90;;;;;;5077951;28;20202;-67
2023/06/29 03:47:27;;;;;;;;;;;17.00;99.90;;;;;;5078407;28;20096;-67
2023/06/29 03:49:54;;;;;;;;;;;16.90;99.90;;;;;;5078379;28;20058;-68
2023/06/29 03:52:21;;;;;;;;;;;16.90;99.90;;;;;;5078297;28;20040;-68
2023/06/29 03:54:48;;;;;;;;;;;16.90;99.90;;;;;;5078208;28;20194;-67
2023/06/29 03:57:15;;;;;;;;;;;16.90;99.90;;;;;;5078584;28;20013;-68
2023/06/29 03:59:43;;;;;;;;;;;16.80;99.90;;;;;;5077945;28;20438;-68
2023/06/29 04:02:10;;;;;;;;;;;16.80;99.90;;;;;;5078204;28;20001;-67
2023/06/29 04:04:36;;;;;;;;;;;16.80;99.90;;;;;;5078115;28;20315;-67
2023/06/29 04:07:03;;;;;;;;;;;16.70;99.90;;;;;;5078073;28;20327;-67
2023/06/29 04:09:30;;;;;;;;;;;16.70;99.90;;;;;;5077785;28;20012;-68
2023/06/29 04:11:56;;;;;;;;;;;16.80;99.90;;;;;;5078293;28;20011;-68
2023/06/29 04:14:23;;;;;;;;;;;16.80;99.90;;;;;;5078013;28;20012;-68
2023/06/29 04:16:51;;;;;;;;;;;16.80;99.90;;;;;;5077799;28;20023;-68
2023/06/29 04:19:17;;;;;;;;;;;16.90;99.90;;;;;;5078021;28;20001;-68
2023/06/29 04:21:44;;;;;;;;;;;16.90;99.90;;;;;;5078286;28;20001;-68
2023/06/29 04:24:11;;;;;;;;;;;17.00;99.90;;;;;;5077404;28;20011;-68
2023/06/29 04:26:38;;;;;;;;;;;17.10;99.90;;;;;;5077812;28;20084;-67
2023/06/29 04:29:06;;;;;;;;;;;17.00;99.90;;;;;;5077779;28;20005;-68
2023/06/29 04:31:32;;;;;;;;;;;17.10;99.90;;;;;;5077723;28;20342;-68
2023/06/29 04:34:02;;;;;;;;;;;17.10;99.90;;;;;;5077701;28;20023;-68
2023/06/29 04:36:29;;;;;;;;;;;17.10;99.90;;;;;;5077225;28;20067;-68
2023/06/29 04:38:58;;;;;;;;;;;17.10;99.90;;;;;;5077402;28;20087;-68
2023/06/29 04:41:31;;;;;;;;;;;17.10;99.90;;;;;;5076771;28;20007;-68
2023/06/29 04:43:58;;;;;;;;;;;17.00;99.90;;;;;;5076912;28;20501;-68
2023/06/29 04:46:24;;;;;;;;;;;17.00;99.90;;;;;;5076972;28;20001;-68
2023/06/29 04:48:51;;;;;;;;;;;17.00;99.90;;;;;;5077053;28;20012;-68
2023/06/29 04:51:19;;;;;;;;;;;16.90;99.90;;;;;;5077171;28;20015;-68
2023/06/29 04:53:46;;;;;;;;;;;17.00;99.90;;;;;;5077290;28;20001;-68
2023/06/29 04:56:13;;;;;;;;;;;17.00;99.90;;;;;;5076484;28;20017;-68
2023/06/29 04:58:39;;;;;;;;;;;17.00;99.90;;;;;;5076949;28;20095;-68
2023/06/29 05:01:06;;;;;;;;;;;17.00;99.90;;;;;;5076878;28;20338;-68
2023/06/29 05:03:34;;;;;;;;;;;17.10;99.90;;;;;;5076522;28;20011;-68
2023/06/29 05:06:00;;;;;;;;;;;17.10;99.90;;;;;;5076798;28;20001;-68
2023/06/29 05:08:28;;;;;;;;;;;17.20;99.90;;;;;;5076767;28;20036;-68
2023/06/29 05:10:55;;;;;;;;;;;17.30;99.90;;;;;;5076332;28;20001;-68
2023/06/29 05:13:23;;;;;;;;;;;17.30;99.90;;;;;;5076778;28;20001;-68
2023/06/29 05:15:50;;;;;;;;;;;17.30;99.90;;;;;;5076612;28;20013;-68
2023/06/29 05:18:17;;;;;;;;;;;17.30;99.90;;;;;;5076675;28;20001;-68
2023/06/29 05:20:43;;;;;;;;;;;17.40;99.90;;;;;;5076274;28;20001;-68
2023/06/29 05:23:11;;;;;;;;;;;17.70;99.90;;;;;;5076591;28;20001;-68
2023/06/29 05:25:40;;;;;;;;;;;17.80;99.90;;;;;;5076618;28;20035;-68
2023/06/29 05:28:07;;;;;;;;;;;18.00;99.90;;;;;;5076421;28;20001;-68
2023/06/29 05:30:34;;;;;;;;;;;18.00;99.90;;;;;;5076086;28;20002;-68
2023/06/29 05:33:00;;;;;;;;;;;18.00;99.90;;;;;;5076357;28;20051;-68
2023/06/29 05:35:27;;;;;;;;;;;18.10;99.90;;;;;;5076152;28;20001;-68
2023/06/29 05:37:54;;;;;;;;;;;18.10;99.90;;;;;;5075981;28;20218;-68
2023/06/29 05:40:20;;;;;;;;;;;18.20;99.90;;;;;;5076107;28;20095;-70
2023/06/29 05:42:48;;;;;;;;;;;18.30;99.90;;;;;;5075990;28;20012;-68
2023/06/29 05:45:15;;;;;;;;;;;18.40;99.90;;;;;;5076090;28;20088;-68
2023/06/29 05:47:42;;;;;;;;;;;18.40;99.90;;;;;;5075967;28;20052;-68
2023/06/29 05:50:08;;;;;;;;;;;18.30;99.90;;;;;;5075775;28;20087;-67
2023/06/29 05:52:37;;;;;;;;;;;18.30;99.90;;;;;;5075918;28;20012;-66
2023/06/29 05:55:04;;;;;;;;;;;18.50;99.90;;;;;;5075605;28;20001;-68
2023/06/29 05:57:31;;;;;;;;;;;18.40;99.90;;;;;;5075796;28;20013;-69
2023/06/29 05:59:59;;;;;;;;;;;18.40;99.90;;;;;;5075843;28;20332;-69
2023/06/29 06:02:28;;;;;;;;;;;18.40;99.90;;;;;;5075541;28;20001;-67
2023/06/29 06:04:55;;;;;;;;;;;18.60;99.90;;;;;;5075749;28;20001;-67
2023/06/29 06:07:28;;;;;;;;;;;18.70;99.90;;;;;;5074520;28;20011;-68
2023/06/29 06:09:55;;;;;;;;;;;18.70;99.90;;;;;;5075539;28;20069;-68
2023/06/29 06:12:22;;;;;;;;;;;18.80;99.90;;;;;;5074940;28;20011;-68
2023/06/29 06:14:49;;;;;;;;;;;18.80;99.90;;;;;;5075088;28;20243;-67
2023/06/29 06:17:17;;;;;;;;;;;18.80;99.90;;;;;;5074790;28;20020;-68
2023/06/29 06:19:44;;;;;;;;;;;18.90;99.90;;;;;;5075324;28;20063;-68
2023/06/29 06:22:10;;;;;;;;;;;19.20;99.90;;;;;;5074803;28;20001;-68
2023/06/29 06:24:40;;;;;;;;;;;19.20;99.90;;;;;;5075165;28;20011;-68
2023/06/29 06:27:07;;;;;;;;;;;19.20;99.90;;;;;;5074867;28;20084;-68
2023/06/29 06:29:33;;;;;;;;;;;19.10;99.90;;;;;;5074826;28;20012;-68
2023/06/29 06:32:01;;;;;;;;;;;19.00;99.90;;;;;;5075231;28;20001;-68
2023/06/29 06:34:32;;;;;;;;;;;19.20;99.90;;;;;;5075028;28;20011;-68
2023/06/29 06:37:01;;;;;;;;;;;19.10;99.90;;;;;;5074546;28;20103;-68
2023/06/29 06:39:32;;;;;;;;;;;19.20;99.90;;;;;;5074717;28;20008;-68
2023/06/29 06:41:58;;;;;;;;;;;19.30;99.90;;;;;;5075022;28;19997;-67
2023/06/29 06:44:28;;;;;;;;;;;19.40;99.90;;;;;;5074908;28;20092;-67
2023/06/29 06:46:55;;;;;;;;;;;19.70;99.90;;;;;;5074972;28;20001;-67
2023/06/29 06:49:21;;;;;;;;;;;19.90;99.90;;;;;;5074791;28;20011;-68
2023/06/29 06:51:50;;;;;;;;;;;20.10;99.90;;;;;;5074800;28;20088;-68
2023/06/29 06:54:16;;;;;;;;;;;20.20;99.90;;;;;;5074655;28;20011;-67
2023/06/29 06:56:43;;;;;;;;;;;20.30;99.90;;;;;;5074543;28;20100;-67
2023/06/29 06:59:10;;;;;;;;;;;20.40;99.90;;;;;;5074593;28;20365;-68
2023/06/29 07:01:40;;;;;;;;;;;20.40;99.90;;;;;;5074757;28;20001;-68
2023/06/29 07:04:07;;;;;;;;;;;20.60;99.90;;;;;;5074865;28;20376;-67
2023/06/29 07:06:34;;;;;;;;;;;20.90;99.90;;;;;;5074786;28;20027;-67
2023/06/29 07:09:02;;;;;;;;;;;21.00;99.90;;;;;;5075583;28;20076;-67
2023/06/29 07:11:28;;;;;;;;;;;21.30;99.90;;;;;;5076109;28;20051;-67
2023/06/29 07:13:55;;;;;;;;;;;21.30;99.90;;;;;;5075887;28;20007;-67
2023/06/29 07:16:23;;;;;;;;;;;21.20;99.90;;;;;;5075934;28;20039;-67
2023/06/29 07:19:11;;;;;;;;;;;21.10;99.90;;;;;;5078036;28;20169;-67
2023/06/29 07:21:37;;;;;;;;;;;21.10;99.90;;;;;;5075222;28;20387;-67
2023/06/29 07:24:06;;;;;;;;;;;21.10;99.90;;;;;;5080178;28;20391;-67
2023/06/29 07:26:32;;;;;;;;;;;21.00;99.90;;;;;;5079607;28;20386;-67
2023/06/29 07:28:59;;;;;;;;;;;21.00;99.90;;;;;;5079809;28;20001;-67
2023/06/29 07:31:29;;;;;;;;;;;21.10;99.90;;;;;;5079361;28;20108;-67
2023/06/29 07:33:56;;;;;;;;;;;21.00;99.90;;;;;;5078989;28;20082;-67
2023/06/29 07:36:23;;;;;;;;;;;21.00;99.90;;;;;;5078488;28;20049;-67
2023/06/29 07:38:50;;;;;;;;;;;21.00;99.90;;;;;;5079287;28;20438;-67
2023/06/29 07:41:18;;;;;;;;;;;21.10;99.90;;;;;;5079541;28;20001;-67
2023/06/29 07:43:47;;;;;;;;;;;21.10;99.90;;;;;;5078749;28;20470;-67
2023/06/29 07:46:16;;;;;;;;;;;21.10;99.90;;;;;;5079021;28;20005;-67
2023/06/29 07:48:43;;;;;;;;;;;21.10;99.90;;;;;;5080408;28;20001;-67
2023/06/29 07:51:10;;;;;;;;;;;21.20;99.90;;;;;;5080517;28;20001;-67
2023/06/29 07:53:37;;;;;;;;;;;21.20;99.90;;;;;;5079773;28;20055;-67
2023/06/29 07:56:03;;;;;;;;;;;21.10;99.90;;;;;;5078976;28;20053;-67
2023/06/29 07:58:31;;;;;;;;;;;21.10;99.90;;;;;;5079083;28;20023;-67
2023/06/29 08:00:58;;;;;;;;;;;21.20;99.90;;;;;;5079439;28;20103;-67
2023/06/29 08:03:25;;;;;;;;;;;21.20;99.90;;;;;;5079835;28;20011;-67
2023/06/29 08:05:52;;;;;;;;;;;21.10;99.90;;;;;;5079465;28;20060;-67
2023/06/29 08:08:19;;;;;;;;;;;21.10;99.90;;;;;;5079896;28;20012;-67
2023/06/29 08:10:48;;;;;;;;;;;21.00;99.90;;;;;;5079941;28;20027;-67
2023/06/29 08:13:15;;;;;;;;;;;20.90;99.90;;;;;;5080911;28;20013;-67
2023/06/29 08:15:43;;;;;;;;;;;21.00;99.90;;;;;;5080450;28;20371;-67
2023/06/29 08:18:10;;;;;;;;;;;21.00;99.90;;;;;;5079772;28;20013;-67
2023/06/29 08:20:36;;;;;;;;;;;21.10;99.90;;;;;;5079767;28;20087;-67
2023/06/29 08:23:03;;;;;;;;;;;21.10;99.90;;;;;;5080201;28;20425;-67
2023/06/29 08:25:30;;;;;;;;;;;21.00;99.90;;;;;;5079492;28;20001;-67
2023/06/29 08:27:56;;;;;;;;;;;21.20;99.90;;;;;;5078934;28;20064;-67
2023/06/29 08:30:23;;;;;;;;;;;21.20;99.90;;;;;;5079121;28;20044;-67
2023/06/29 08:32:51;;;;;;;;;;;21.30;99.90;;;;;;5080602;28;20001;-67
2023/06/29 08:35:18;;;;;;;;;;;21.30;99.90;;;;;;5081265;28;20104;-67
2023/06/29 08:37:47;;;;;;;;;;;21.30;99.90;;;;;;5079618;28;20043;-67
2023/06/29 08:40:17;;;;;;;;;;;21.30;99.90;;;;;;5079204;28;20001;-67
2023/06/29 08:42:44;;;;;;;;;;;21.30;99.90;;;;;;5079602;28;20001;-67
2023/06/29 08:45:10;;;;;;;;;;;21.20;99.90;;;;;;5079423;28;20052;-67
2023/06/29 08:47:38;;;;;;;;;;;21.40;99.90;;;;;;5079572;28;20109;-67
2023/06/29 08:50:08;;;;;;;;;;;21.30;99.90;;;;;;5078912;28;20001;-67
2023/06/29 08:52:35;;;;;;;;;;;21.30;99.90;;;;;;5078580;28;20321;-68
2023/06/29 08:55:03;;;;;;;;;;;21.30;99.90;;;;;;5079366;28;20099;-67
2023/06/29 08:57:31;;;;;;;;;;;21.20;99.90;;;;;;5078514;28;20346;-68
2023/06/29 08:59:58;;;;;;;;;;;21.20;99.90;;;;;;5078151;28;20001;-67
2023/06/29 09:02:25;;;;;;;;;;;21.20;99.90;;;;;;5078327;28;20001;-67
2023/06/29 09:04:52;;;;;;;;;;;21.30;99.90;;;;;;5078741;28;20001;-68
2023/06/29 09:07:20;;;;;;;;;;;21.20;99.90;;;;;;5077971;28;20001;-68
2023/06/29 09:09:47;;;;;;;;;;;21.20;99.90;;;;;;5077724;28;20115;-67
2023/06/29 09:12:13;;;;;;;;;;;21.30;99.90;;;;;;5077400;28;20024;-68
2023/06/29 09:14:43;;;;;;;;;;;21.30;99.90;;;;;;5076653;28;20027;-67
2023/06/29 09:17:14;;;;;;;;;;;21.30;99.90;;;;;;5076644;28;20032;-66
2023/06/29 09:19:50;;;;;;;;;;;21.40;99.90;;;;;;5076890;28;20006;-67
2023/06/29 09:22:21;;;;;;;;;;;21.40;99.90;;;;;;5076829;28;20369;-67
2023/06/29 09:24:48;;;;;;;;;;;21.40;99.90;;;;;;5076883;28;20001;-67
2023/06/29 09:27:14;;;;;;;;;;;21.40;99.90;;;;;;5076461;28;20050;-68
2023/06/29 09:29:49;;;;;;;;;;;21.50;99.90;;;;;;5076979;28;20015;-67
2023/06/29 09:32:16;;;;;;;;;;;21.50;99.90;;;;;;5076699;28;20007;-67
2023/06/29 09:34:45;;;;;;;;;;;21.50;99.90;;;;;;5076571;28;20116;-67
2023/06/29 09:37:13;;;;;;;;;;;21.60;99.90;;;;;;5075906;28;20124;-67
2023/06/29 09:39:49;;;;;;;;;;;21.60;99.90;;;;;;5076092;28;20091;-67
2023/06/29 09:42:16;;;;;;;;;;;21.70;99.90;;;;;;5076207;28;20007;-67
2023/06/29 09:44:45;;;;;;;;;;;21.70;99.90;;;;;;5076268;28;20001;-66
2023/06/29 09:47:15;;;;;;;;;;;21.80;99.90;;;;;;5076442;28;20283;-66
2023/06/29 09:49:47;;;;;;;;;;;21.90;99.90;;;;;;5076743;28;20001;-66
2023/06/29 09:52:15;;;;;;;;;;;21.80;99.90;;;;;;5076412;28;20001;-66
2023/06/29 09:54:43;;;;;;;;;;;21.80;99.90;;;;;;5076092;28;20451;-66
2023/06/29 09:57:10;;;;;;;;;;;21.90;99.90;;;;;;5075749;28;20017;-67
2023/06/29 09:59:38;;;;;;;;;;;22.00;99.90;;;;;;5076897;28;20001;-66
2023/06/29 10:02:05;;;;;;;;;;;22.20;99.90;;;;;;5076172;28;20064;-67
2023/06/29 10:04:32;;;;;;;;;;;22.20;99.90;;;;;;5076034;28;20001;-67
2023/06/29 10:07:03;;;;;;;;;;;22.30;99.90;;;;;;5076144;28;20080;-67
2023/06/29 10:09:29;;;;;;;;;;;22.30;99.90;;;;;;5075634;28;19997;-67
2023/06/29 10:11:59;;;;;;;;;;;22.20;99.90;;;;;;5075713;28;20002;-67
2023/06/29 10:14:26;;;;;;;;;;;22.30;99.90;;;;;;5076094;28;20001;-67
2023/06/29 10:16:54;;;;;;;;;;;22.30;99.90;;;;;;5075782;28;20422;-66
2023/06/29 10:19:22;;;;;;;;;;;22.30;99.90;;;;;;5075420;28;20075;-67
2023/06/29 10:21:52;;;;;;;;;;;22.40;99.90;;;;;;5075705;28;20084;-67
2023/06/29 10:24:22;;;;;;;;;;;22.40;99.90;;;;;;5075316;28;20028;-66
2023/06/29 10:26:49;;;;;;;;;;;22.60;99.90;;;;;;5075954;28;20001;-67
2023/06/29 10:29:17;;;;;;;;;;;22.70;99.90;;;;;;5075989;28;20004;-67
2023/06/29 10:31:46;;;;;;;;;;;22.70;99.90;;;;;;5075617;28;20096;-66
2023/06/29 10:34:14;;;;;;;;;;;22.70;99.90;;;;;;5076454;28;20001;-67
2023/06/29 10:36:48;;;;;;;;;;;22.80;99.90;;;;;;5075354;28;20021;-66
2023/06/29 10:39:34;;;;;;;;;;;22.80;99.90;;;;;;5076003;28;20016;-66
2023/06/29 10:42:00;;;;;;;;;;;22.80;99.90;;;;;;5076042;28;19997;-67
2023/06/29 10:44:35;;;;;;;;;;;22.90;99.90;;;;;;5076182;28;20001;-66
2023/06/29 10:47:02;;;;;;;;;;;22.90;99.90;;;;;;5075274;28;20443;-68
2023/06/29 10:49:29;;;;;;;;;;;22.90;99.90;;;;;;5075622;28;20048;-67
2023/06/29 10:52:01;;;;;;;;;;;23.10;99.90;;;;;;5075745;28;20001;-67
2023/06/29 10:54:27;;;;;;;;;;;23.10;99.90;;;;;;5076850;28;20008;-67
2023/06/29 10:56:58;;;;;;;;;;;23.20;99.90;;;;;;5077320;28;20001;-67
2023/06/29 10:59:26;;;;;;;;;;;23.30;99.90;;;;;;5077520;28;20107;-67
2023/06/29 11:01:54;;;;;;;;;;;23.40;99.90;;;;;;5075271;28;20051;-67
2023/06/29 11:04:21;;;;;;;;;;;23.40;99.90;;;;;;5075074;28;20048;-67
2023/06/29 11:06:50;;;;;;;;;;;23.30;99.90;;;;;;5074986;28;20056;-68
2023/06/29 11:09:17;;;;;;;;;;;23.30;99.90;;;;;;5075461;28;20012;-67
2023/06/29 11:11:45;;;;;;;;;;;23.30;99.90;;;;;;5075145;28;20012;-68
2023/06/29 11:14:12;;;;;;;;;;;23.10;99.90;;;;;;5074942;28;20005;-68
2023/06/29 11:16:40;;;;;;;;;;;23.10;99.90;;;;;;5075890;28;20001;-67
2023/06/29 11:19:08;;;;;;;;;;;23.30;99.90;;;;;;5075801;28;20024;-67
2023/06/29 11:21:34;;;;;;;;;;;23.40;99.90;;;;;;5075215;28;20043;-67
2023/06/29 11:24:01;;;;;;;;;;;23.60;99.90;;;;;;5075536;28;20403;-67
2023/06/29 11:26:29;;;;;;;;;;;23.70;99.90;;;;;;5074445;28;20008;-67
2023/06/29 11:28:55;;;;;;;;;;;23.80;99.90;;;;;;5075397;28;20012;-68
2023/06/29 11:31:22;;;;;;;;;;;23.90;99.90;;;;;;5077539;28;20064;-68
2023/06/29 11:33:49;;;;;;;;;;;24.00;99.90;;;;;;5077007;28;20083;-68
2023/06/29 11:36:26;;;;;;;;;;;24.10;99.90;;;;;;5076419;28;20011;-67
2023/06/29 11:39:03;;;;;;;;;;;24.10;99.90;;;;;;5076537;28;20013;-67
2023/06/29 11:41:30;;;;;;;;;;;24.60;99.90;;;;;;5075803;28;20439;-66
2023/06/29 11:43:58;;;;;;;;;;;25.50;99.90;;;;;;5076523;28;20064;-67
2023/06/29 11:46:24;;;;;;;;;;;26.00;99.90;;;;;;5076936;28;20088;-67
2023/06/29 11:48:55;;;;;;;;;;;26.30;99.90;;;;;;5077149;28;20005;-67
2023/06/29 11:51:24;;;;;;;;;;;26.40;99.90;;;;;;5076593;28;20020;-67
2023/06/29 11:53:51;;;;;;;;;;;26.50;99.90;;;;;;5076564;28;20012;-66
2023/06/29 11:56:25;;;;;;;;;;;26.30;99.90;;;;;;5075570;28;20001;-67
2023/06/29 11:58:52;;;;;;;;;;;26.10;99.90;;;;;;5076963;28;20021;-67
2023/06/29 12:01:18;;;;;;;;;;;26.00;99.90;;;;;;5075766;28;20001;-67
2023/06/29 12:03:47;;;;;;;;;;;25.80;99.90;;;;;;5075468;28;20011;-67
2023/06/29 12:06:13;;;;;;;;;;;25.50;99.90;;;;;;5079248;28;20001;-67
2023/06/29 12:08:42;;;;;;;;;;;25.10;99.90;;;;;;5080342;28;20095;-67
2023/06/29 12:11:15;;;;;;;;;;;25.00;99.90;;;;;;5080674;28;20100;-67
2023/06/29 12:13:43;;;;;;;;;;;25.00;99.90;;;;;;5080225;28;19997;-67
2023/06/29 12:16:10;;;;;;;;;;;24.90;99.90;;;;;;5080650;28;20012;-67
2023/06/29 12:18:37;;;;;;;;;;;25.10;99.90;;;;;;5080749;28;20023;-66
2023/06/29 12:21:04;;;;;;;;;;;25.10;99.90;;;;;;5079391;28;20059;-66
2023/06/29 12:23:31;;;;;;;;;;;25.10;99.90;;;;;;5078437;28;20054;-67
2023/06/29 12:25:59;;;;;;;;;;;24.80;99.90;;;;;;5079689;28;20001;-67
2023/06/29 12:28:26;;;;;;;;;;;24.80;99.90;;;;;;5079222;28;20011;-67
2023/06/29 12:30:52;;;;;;;;;;;24.90;99.90;;;;;;5078718;28;20015;-67
2023/06/29 12:33:19;;;;;;;;;;;24.80;99.90;;;;;;5078103;28;20432;-67
2023/06/29 12:35:46;;;;;;;;;;;24.50;99.90;;;;;;5078737;28;20012;-67
2023/06/29 12:38:12;;;;;;;;;;;24.40;99.90;;;;;;5077953;28;20025;-67
2023/06/29 12:40:39;;;;;;;;;;;24.20;99.90;;;;;;5077838;28;20156;-67
2023/06/29 12:43:07;;;;;;;;;;;24.00;99.90;;;;;;5078021;28;20385;-67
2023/06/29 12:45:35;;;;;;;;;;;24.20;99.90;;;;;;5079973;28;20350;-66
2023/06/29 12:48:03;;;;;;;;;;;24.70;99.90;;;;;;5080535;28;20337;-67
2023/06/29 12:50:32;;;;;;;;;;;25.00;99.90;;;;;;5079346;28;20001;-67
2023/06/29 12:52:59;;;;;;;;;;;25.20;99.90;;;;;;5077738;28;20012;-67
2023/06/29 12:55:26;;;;;;;;;;;25.30;99.90;;;;;;5078746;28;20083;-67
2023/06/29 12:57:52;;;;;;;;;;;25.50;99.90;;;;;;5077116;28;20065;-67
2023/06/29 13:00:21;;;;;;;;;;;24.90;99.90;;;;;;5077224;28;20001;-67
2023/06/29 13:02:48;;;;;;;;;;;24.70;99.90;;;;;;5077632;28;20091;-67
2023/06/29 13:05:15;;;;;;;;;;;24.50;99.90;;;;;;5078696;28;20000;-66
2023/06/29 13:07:42;;;;;;;;;;;24.50;99.90;;;;;;5079046;28;20014;-66
2023/06/29 13:10:11;;;;;;;;;;;24.50;99.90;;;;;;5077769;28;20009;-66
2023/06/29 13:12:39;;;;;;;;;;;24.30;99.90;;;;;;5077745;28;20001;-67
2023/06/29 13:15:07;;;;;;;;;;;24.30;99.90;;;;;;5077659;28;20426;-67
2023/06/29 13:17:35;;;;;;;;;;;24.30;99.90;;;;;;5077559;28;20323;-67
2023/06/29 13:20:02;;;;;;;;;;;24.50;99.90;;;;;;5078238;28;20369;-68
2023/06/29 13:22:28;;;;;;;;;;;24.70;99.90;;;;;;5078634;28;20013;-67
2023/06/29 13:24:55;;;;;;;;;;;24.90;99.90;;;;;;5077973;28;20001;-67
2023/06/29 13:27:23;;;;;;;;;;;25.00;99.90;;;;;;5077910;28;20115;-67
2023/06/29 13:29:49;;;;;;;;;;;25.00;99.90;;;;;;5077258;28;20001;-67
2023/06/29 13:32:16;;;;;;;;;;;25.20;99.90;;;;;;5077921;28;20352;-67
2023/06/29 13:34:44;;;;;;;;;;;25.50;99.90;;;;;;5077998;28;20005;-68
2023/06/29 13:37:11;;;;;;;;;;;26.00;99.90;;;;;;5077888;28;20027;-67
2023/06/29 13:39:41;;;;;;;;;;;26.20;99.90;;;;;;5078614;28;20017;-67
2023/06/29 13:42:09;;;;;;;;;;;26.50;99.90;;;;;;5078931;28;20012;-67
2023/06/29 13:44:36;;;;;;;;;;;26.60;99.90;;;;;;5078557;28;20095;-67
2023/06/29 13:47:03;;;;;;;;;;;26.70;99.90;;;;;;5078473;28;20016;-67
2023/06/29 13:49:30;;;;;;;;;;;26.80;99.90;;;;;;5078624;28;20027;-67
2023/06/29 13:51:58;;;;;;;;;;;26.90;99.90;;;;;;5078222;28;20085;-68
2023/06/29 13:54:24;;;;;;;;;;;26.60;99.90;;;;;;5077772;28;20012;-67
2023/06/29 13:56:52;;;;;;;;;;;26.30;99.90;;;;;;5077332;28;20001;-67
2023/06/29 13:59:19;;;;;;;;;;;26.20;99.90;;;;;;5077658;28;20071;-69
2023/06/29 14:01:48;;;;;;;;;;;26.10;99.90;;;;;;5078245;28;20012;-68
2023/06/29 14:04:16;;;;;;;;;;;26.20;99.90;;;;;;5078329;28;20001;-68
2023/06/29 14:06:43;;;;;;;;;;;26.30;99.90;;;;;;5077571;28;20161;-68
2023/06/29 14:09:11;;;;;;;;;;;26.30;99.90;;;;;;5077996;28;20001;-67
2023/06/29 14:11:38;;;;;;;;;;;26.60;99.90;;;;;;5077613;28;20001;-67
2023/06/29 14:14:05;;;;;;;;;;;26.80;99.90;;;;;;5077546;28;20040;-67
2023/06/29 14:16:35;;;;;;;;;;;27.00;99.90;;;;;;5077656;28;20001;-68
2023/06/29 14:19:02;;;;;;;;;;;27.10;99.90;;;;;;5077582;28;20353;-67